createdAt,value
2023-12-11T00:01:12.289Z,8.41
2023-12-11T00:04:55.222Z,8.43
2023-12-11T00:08:38.360Z,8.48
2023-12-11T00:12:21.168Z,8.48
2023-12-11T00:16:04.084Z,8.52
2023-12-11T00:19:48.394Z,8.47
2023-12-11T00:23:31.263Z,8.39
2023-12-11T00:27:14.133Z,8.37
2023-12-11T00:30:57.042Z,8.40
2023-12-11T00:34:39.933Z,8.39
2023-12-11T00:38:24.274Z,8.37
2023-12-11T00:42:07.213Z,8.33
2023-12-11T00:45:50.070Z,8.37
2023-12-11T00:49:33.220Z,8.40
2023-12-11T00:53:16.228Z,8.46
2023-12-11T00:57:00.372Z,8.37
2023-12-11T01:00:43.216Z,8.36
2023-12-11T01:04:26.125Z,8.32
2023-12-11T01:08:09.003Z,8.33
2023-12-11T01:11:51.951Z,8.32
2023-12-11T01:15:36.195Z,8.35
2023-12-11T01:19:19.110Z,8.36
2023-12-11T01:23:01.968Z,8.35
2023-12-11T01:26:44.742Z,8.39
2023-12-11T01:30:27.579Z,8.36
2023-12-11T01:34:11.944Z,8.25
2023-12-11T01:37:54.745Z,8.15
2023-12-11T01:41:37.564Z,8.01
2023-12-11T01:45:20.430Z,7.98
2023-12-11T01:49:03.368Z,7.94
2023-12-11T01:52:47.659Z,7.92
2023-12-11T01:56:30.632Z,7.86
2023-12-11T02:00:14.214Z,7.85
2023-12-11T02:03:57.116Z,7.83
2023-12-11T02:07:40.437Z,7.80
2023-12-11T02:11:24.641Z,7.78
2023-12-11T02:15:08.378Z,7.73
2023-12-11T02:18:51.419Z,7.83
2023-12-11T02:22:34.387Z,7.77
2023-12-11T02:26:20.581Z,7.63
2023-12-11T02:30:03.442Z,7.39
2023-12-11T02:33:46.367Z,7.16
2023-12-11T02:37:29.508Z,7.18
2023-12-11T02:41:12.445Z,7.16
2023-12-11T02:44:56.811Z,7.25
2023-12-11T02:48:39.877Z,7.23
2023-12-11T02:52:22.698Z,7.25
2023-12-11T02:56:06.218Z,7.18
2023-12-11T02:59:49.052Z,7.19
2023-12-11T03:03:33.297Z,7.09
2023-12-11T03:07:16.498Z,6.95
2023-12-11T03:11:00.142Z,6.86
2023-12-11T03:14:43.005Z,6.82
2023-12-11T03:18:25.923Z,6.74
2023-12-11T03:22:10.181Z,6.71
2023-12-11T03:25:53.003Z,6.75
2023-12-11T03:29:35.844Z,6.83
2023-12-11T03:33:18.681Z,6.87
2023-12-11T03:37:01.604Z,6.92
2023-12-11T03:40:45.850Z,6.96
2023-12-11T03:44:28.642Z,7.00
2023-12-11T03:48:11.735Z,7.01
2023-12-11T03:51:54.633Z,6.96
2023-12-11T03:55:37.463Z,6.99
2023-12-11T03:59:21.659Z,7.02
2023-12-11T04:03:04.462Z,7.09
2023-12-11T04:06:47.310Z,7.15
2023-12-11T04:10:30.181Z,7.07
2023-12-11T04:14:13.052Z,7.17
2023-12-11T04:17:57.308Z,7.23
2023-12-11T04:21:40.446Z,7.20
2023-12-11T04:25:23.327Z,7.22
2023-12-11T04:29:06.132Z,7.39
2023-12-11T04:32:49.042Z,7.27
2023-12-11T04:36:33.299Z,7.27
2023-12-11T04:40:16.250Z,7.32
2023-12-11T04:43:59.147Z,7.28
2023-12-11T04:47:42.174Z,7.29
2023-12-11T04:51:25.013Z,7.26
2023-12-11T04:55:09.962Z,7.27
2023-12-11T04:58:52.843Z,7.29
2023-12-11T05:02:35.823Z,7.27
2023-12-11T05:06:18.645Z,7.21
2023-12-11T05:10:01.495Z,7.09
2023-12-11T05:13:45.691Z,7.03
2023-12-11T05:17:28.685Z,7.00
2023-12-11T05:21:11.973Z,7.04
2023-12-11T05:24:54.826Z,7.00
2023-12-11T05:28:37.669Z,6.94
2023-12-11T05:32:21.809Z,6.95
2023-12-11T05:36:05.071Z,6.86
2023-12-11T05:39:57.474Z,6.83
2023-12-11T05:43:50.779Z,6.88
2023-12-11T05:47:34.986Z,6.95
2023-12-11T05:51:18.128Z,7.03
2023-12-11T05:55:01.155Z,6.97
2023-12-11T05:58:44.080Z,6.96
2023-12-11T06:02:27.175Z,6.96
2023-12-11T06:06:17.645Z,7.01
2023-12-11T06:10:00.968Z,6.98
2023-12-11T06:13:43.837Z,7.04
2023-12-11T06:17:26.765Z,7.16
2023-12-11T06:21:20.854Z,7.24
2023-12-11T06:25:03.864Z,7.25
2023-12-11T06:28:46.734Z,7.30
2023-12-11T06:32:29.587Z,7.32
2023-12-11T06:36:13.270Z,7.35
2023-12-11T06:39:57.537Z,7.37
2023-12-11T06:43:40.379Z,7.41
2023-12-11T06:47:23.265Z,8.21
2023-12-11T06:51:06.398Z,8.53
2023-12-11T06:54:49.277Z,8.44
2023-12-11T06:58:33.460Z,8.33
2023-12-11T07:02:16.355Z,8.13
2023-12-11T07:05:59.329Z,8.10
2023-12-11T07:09:47.378Z,8.07
2023-12-11T07:13:30.392Z,8.09
2023-12-11T07:17:14.873Z,8.16
2023-12-11T07:20:57.830Z,8.19
2023-12-11T07:24:40.759Z,8.28
2023-12-11T07:28:23.868Z,8.24
2023-12-11T07:32:07.694Z,8.28
2023-12-11T07:35:51.921Z,8.35
2023-12-11T07:39:34.941Z,8.50
2023-12-11T07:43:17.876Z,8.57
2023-12-11T07:47:01.326Z,8.69
2023-12-11T07:50:44.261Z,8.69
2023-12-11T07:54:28.456Z,8.58
2023-12-11T07:58:12.006Z,8.62
2023-12-11T08:01:55.060Z,8.65
2023-12-11T08:05:37.980Z,8.60
2023-12-11T08:09:20.880Z,8.58
2023-12-11T08:13:05.172Z,8.65
2023-12-11T08:16:48.181Z,8.65
2023-12-11T08:20:31.649Z,8.62
2023-12-11T08:24:14.597Z,8.67
2023-12-11T08:27:57.474Z,8.66
2023-12-11T08:31:41.719Z,8.65
2023-12-11T08:35:24.562Z,8.70
2023-12-11T08:39:07.741Z,8.77
2023-12-11T08:42:50.638Z,8.85
2023-12-11T08:46:33.530Z,8.98
2023-12-11T08:50:18.242Z,9.10
2023-12-11T08:54:01.276Z,9.07
2023-12-11T08:57:44.328Z,9.07
2023-12-11T09:01:27.293Z,9.05
2023-12-11T09:05:10.729Z,9.09
2023-12-11T09:08:54.913Z,9.08
2023-12-11T09:12:38.353Z,9.20
2023-12-11T09:16:21.288Z,9.17
2023-12-11T09:20:06.155Z,9.22
2023-12-11T09:23:49.091Z,9.19
2023-12-11T09:27:33.562Z,9.21
2023-12-11T09:31:16.795Z,9.26
2023-12-11T09:34:59.983Z,9.32
2023-12-11T09:38:44.037Z,9.37
2023-12-11T09:42:27.728Z,9.44
2023-12-11T09:46:13.688Z,9.48
2023-12-11T09:49:56.902Z,9.54
2023-12-11T09:53:39.901Z,9.64
2023-12-11T09:57:24.108Z,9.63
2023-12-11T10:01:08.098Z,9.64
2023-12-11T10:05:06.260Z,9.72
2023-12-11T10:08:53.685Z,9.82
2023-12-11T10:12:42.002Z,9.85
2023-12-11T10:16:32.184Z,9.84
2023-12-11T10:20:20.493Z,9.79
2023-12-11T10:24:04.922Z,9.71
2023-12-11T10:27:47.732Z,9.72
2023-12-11T10:31:37.005Z,9.60
2023-12-11T10:35:26.148Z,9.60
2023-12-11T10:39:10.067Z,9.62
2023-12-11T10:42:58.560Z,9.70
2023-12-11T10:46:41.804Z,9.62
2023-12-11T10:50:26.426Z,9.55
2023-12-11T10:54:09.407Z,9.50
2023-12-11T10:57:54.105Z,9.47
2023-12-11T11:01:37.259Z,9.48
2023-12-11T11:05:21.190Z,9.51
2023-12-11T11:09:11.934Z,9.55
2023-12-11T11:12:58.973Z,9.45
2023-12-11T11:16:54.425Z,9.38
2023-12-11T11:20:38.379Z,9.37
2023-12-11T11:24:29.296Z,9.35
2023-12-11T11:28:38.932Z,9.37
2023-12-11T11:32:22.174Z,9.26
2023-12-11T11:36:05.513Z,9.25
2023-12-11T11:39:59.939Z,9.30
2023-12-11T11:43:47.078Z,9.35
2023-12-11T11:47:31.105Z,9.44
2023-12-11T11:51:15.282Z,9.32
2023-12-11T11:55:04.102Z,9.28
2023-12-11T11:58:47.986Z,9.22
2023-12-11T12:02:30.815Z,9.17
2023-12-11T12:06:15.688Z,9.12
2023-12-11T12:10:00.904Z,9.16
2023-12-11T12:13:44.067Z,9.12
2023-12-11T12:17:27.939Z,9.13
2023-12-11T12:21:10.924Z,9.12
2023-12-11T12:24:53.994Z,9.04
2023-12-11T12:28:38.267Z,9.00
2023-12-11T12:32:21.812Z,8.93
2023-12-11T12:36:05.080Z,8.84
2023-12-11T12:39:47.987Z,8.81
2023-12-11T12:43:30.829Z,8.85
2023-12-11T12:47:14.958Z,8.95
2023-12-11T12:51:07.231Z,8.87
2023-12-11T12:54:50.758Z,8.88
2023-12-11T12:58:34.145Z,8.91
2023-12-11T13:02:19.243Z,9.06
2023-12-11T13:06:02.208Z,9.12
2023-12-11T13:09:45.648Z,9.14
2023-12-11T13:13:29.862Z,9.07
2023-12-11T13:17:12.632Z,9.04
2023-12-11T13:20:56.827Z,8.94
2023-12-11T13:24:39.748Z,8.85
2023-12-11T13:28:22.646Z,8.88
2023-12-11T13:32:06.095Z,8.78
2023-12-11T13:35:49.550Z,8.79
2023-12-11T13:39:33.698Z,8.73
2023-12-11T13:43:16.557Z,8.62
2023-12-11T13:47:00.363Z,8.54
2023-12-11T13:50:43.348Z,8.53
2023-12-11T13:54:26.129Z,8.53
2023-12-11T13:58:10.334Z,8.43
2023-12-11T14:01:53.329Z,8.41
2023-12-11T14:05:36.457Z,8.36
2023-12-11T14:09:19.290Z,8.43
2023-12-11T14:13:02.199Z,8.34
2023-12-11T14:16:46.570Z,8.28
2023-12-11T14:20:31.031Z,8.25
2023-12-11T14:24:13.873Z,8.25
2023-12-11T14:28:02.190Z,8.23
2023-12-11T14:31:49.176Z,8.16
2023-12-11T14:35:32.262Z,8.15
2023-12-11T14:39:15.637Z,8.13
2023-12-11T14:43:00.913Z,7.97
2023-12-11T14:46:43.777Z,7.94
2023-12-11T14:50:27.916Z,7.91
2023-12-11T14:54:10.679Z,7.85
2023-12-11T14:57:53.799Z,7.84
2023-12-11T15:01:36.660Z,7.77
2023-12-11T15:05:19.642Z,7.72
2023-12-11T15:09:06.406Z,7.73
2023-12-11T15:12:49.253Z,7.80
2023-12-11T15:16:34.187Z,7.74
2023-12-11T15:20:20.739Z,7.69
2023-12-11T15:24:06.663Z,7.73
2023-12-11T15:27:49.978Z,7.67
2023-12-11T15:31:33.372Z,7.65
2023-12-11T15:35:16.364Z,7.67
2023-12-11T15:38:59.163Z,7.58
2023-12-11T15:42:43.506Z,7.58
2023-12-11T15:46:26.440Z,7.49
2023-12-11T15:50:10.732Z,7.50
2023-12-11T15:53:53.846Z,7.49
2023-12-11T15:57:36.885Z,7.47
2023-12-11T16:01:21.224Z,7.56
2023-12-11T16:05:04.691Z,7.53
2023-12-11T16:08:47.963Z,7.57
2023-12-11T16:12:32.264Z,7.46
2023-12-11T16:16:17.179Z,7.35
2023-12-11T16:20:01.485Z,7.34
2023-12-11T16:23:44.317Z,7.26
2023-12-11T16:27:27.163Z,7.19
2023-12-11T16:31:10.266Z,7.13
2023-12-11T16:34:53.114Z,7.12
2023-12-11T16:38:37.373Z,7.07
2023-12-11T16:42:20.249Z,7.09
2023-12-11T16:46:04.762Z,7.08
2023-12-11T16:49:55.851Z,7.13
2023-12-11T16:53:47.600Z,7.11
2023-12-11T16:57:30.488Z,7.07
2023-12-11T17:01:13.811Z,7.04
2023-12-11T17:04:56.828Z,7.07
2023-12-11T17:08:39.581Z,7.10
2023-12-11T17:12:23.696Z,7.12
2023-12-11T17:16:07.574Z,7.08
2023-12-11T17:19:50.566Z,7.16
2023-12-11T17:23:33.344Z,7.08
2023-12-11T17:27:16.202Z,7.09
2023-12-11T17:31:01.548Z,7.12
2023-12-11T17:34:44.965Z,7.17
2023-12-11T17:38:27.950Z,7.27
2023-12-11T17:42:10.714Z,7.42
2023-12-11T17:45:53.534Z,7.47
2023-12-11T17:49:37.776Z,7.50
2023-12-11T17:53:20.692Z,7.59
2023-12-11T17:57:04.651Z,7.64
2023-12-11T18:00:47.882Z,7.69
2023-12-11T18:04:30.723Z,7.67
2023-12-11T18:08:14.898Z,7.67
2023-12-11T18:11:57.666Z,7.78
2023-12-11T18:15:40.448Z,7.79
2023-12-11T18:19:25.980Z,7.72
2023-12-11T18:23:08.817Z,7.67
2023-12-11T18:26:52.938Z,7.67
2023-12-11T18:30:35.788Z,7.71
2023-12-11T18:34:18.825Z,7.67
2023-12-11T18:38:01.630Z,7.63
2023-12-11T18:41:44.814Z,7.84
2023-12-11T18:45:29.014Z,7.78
2023-12-11T18:49:13.638Z,7.69
2023-12-11T18:52:58.055Z,7.67
2023-12-11T18:56:41.344Z,7.72
2023-12-11T19:00:24.332Z,7.81
2023-12-11T19:04:10.239Z,7.83
2023-12-11T19:07:53.434Z,7.84
2023-12-11T19:11:36.354Z,7.81
2023-12-11T19:15:19.219Z,7.83
2023-12-11T19:19:02.245Z,7.72
2023-12-11T19:22:46.417Z,7.73
2023-12-11T19:26:29.206Z,7.65
2023-12-11T19:30:12.999Z,7.62
2023-12-11T19:33:56.825Z,7.62
2023-12-11T19:37:40.561Z,7.69
2023-12-11T19:41:24.895Z,7.71
2023-12-11T19:45:08.987Z,7.76
2023-12-11T19:48:51.940Z,7.77
2023-12-11T19:52:34.889Z,7.80
2023-12-11T19:56:25.764Z,7.78
2023-12-11T20:00:09.988Z,7.89
2023-12-11T20:03:52.858Z,7.88
2023-12-11T20:07:35.991Z,7.94
2023-12-11T20:11:19.183Z,7.88
2023-12-11T20:15:03.556Z,8.04
2023-12-11T20:18:46.778Z,8.08
2023-12-11T20:22:30.052Z,8.05
2023-12-11T20:26:16.356Z,7.97
2023-12-11T20:29:59.214Z,7.93
2023-12-11T20:33:43.400Z,7.97
2023-12-11T20:37:26.402Z,8.01
2023-12-11T20:41:09.542Z,8.14
2023-12-11T20:44:54.559Z,8.12
2023-12-11T20:48:37.390Z,8.11
2023-12-11T20:52:21.787Z,8.16
2023-12-11T20:56:05.011Z,8.19
2023-12-11T20:59:47.867Z,8.18
2023-12-11T21:03:30.647Z,8.19
2023-12-11T21:07:13.503Z,8.22
2023-12-11T21:10:57.696Z,8.11
2023-12-11T21:14:40.806Z,8.09
2023-12-11T21:18:25.876Z,7.99
2023-12-11T21:22:08.798Z,7.91
2023-12-11T21:25:51.773Z,7.95
2023-12-11T21:29:36.024Z,7.88
2023-12-11T21:33:18.897Z,7.86
2023-12-11T21:37:01.648Z,7.74
2023-12-11T21:40:44.420Z,7.75
2023-12-11T21:44:27.325Z,7.73
2023-12-11T21:48:11.572Z,7.57
2023-12-11T21:51:54.741Z,7.46
2023-12-11T21:55:39.752Z,7.35
2023-12-11T21:59:35.102Z,7.39
2023-12-11T22:03:23.721Z,7.35
2023-12-11T22:07:06.708Z,7.33
2023-12-11T22:10:49.546Z,7.37
2023-12-11T22:14:32.307Z,7.29
2023-12-11T22:18:15.278Z,7.21
2023-12-11T22:21:59.480Z,7.17
2023-12-11T22:25:42.181Z,7.15
2023-12-11T22:29:24.981Z,7.18
2023-12-11T22:33:08.060Z,7.20
2023-12-11T22:36:52.885Z,7.23
2023-12-11T22:40:38.714Z,7.35
2023-12-11T22:44:21.517Z,7.28
2023-12-11T22:48:05.588Z,7.20
2023-12-11T22:51:49.995Z,7.18
2023-12-11T22:55:33.088Z,7.08
2023-12-11T22:59:17.296Z,7.04
2023-12-11T23:03:00.210Z,7.09
2023-12-11T23:06:43.004Z,7.10
2023-12-11T23:10:26.763Z,7.10
2023-12-11T23:14:10.490Z,7.23
2023-12-11T23:17:54.775Z,7.14
2023-12-11T23:21:37.530Z,7.09
2023-12-11T23:25:22.203Z,7.05
2023-12-11T23:29:05.225Z,6.92
2023-12-11T23:32:48.122Z,6.98
2023-12-11T23:36:32.332Z,6.95
2023-12-11T23:40:15.288Z,6.89
2023-12-11T23:43:58.104Z,6.82
2023-12-11T23:47:40.922Z,6.80
2023-12-11T23:51:24.134Z,6.76
2023-12-11T23:55:09.936Z,6.78
2023-12-11T23:58:52.787Z,6.78
